sensor_id;sensor_type;location;lat;lon;timestamp;P1;durP1;ratioP1;P2;durP2;ratioP2
14754;SDS011;7469;50.906;6.952;2023-04-30T00:00:36;23.93;;;18.97;;
14754;SDS011;7469;50.906;6.952;2023-04-30T00:03:04;28.13;;;20.60;;
14754;SDS011;7469;50.906;6.952;2023-04-30T00:05:33;30.40;;;20.23;;
14754;SDS011;7469;50.906;6.952;2023-04-30T00:08:02;28.67;;;20.50;;
14754;SDS011;7469;50.906;6.952;2023-04-30T00:10:30;29.80;;;20.40;;
14754;SDS011;7469;50.906;6.952;2023-04-30T00:12:58;28.60;;;20.17;;
14754;SDS011;7469;50.906;6.952;2023-04-30T00:15:26;29.30;;;20.47;;
14754;SDS011;7469;50.906;6.952;2023-04-30T00:17:54;28.83;;;20.10;;
14754;SDS011;7469;50.906;6.952;2023-04-30T00:20:22;25.97;;;19.03;;
14754;SDS011;7469;50.906;6.952;2023-04-30T00:22:51;27.10;;;20.77;;
14754;SDS011;7469;50.906;6.952;2023-04-30T00:25:19;28.97;;;19.93;;
14754;SDS011;7469;50.906;6.952;2023-04-30T00:27:49;31.97;;;20.10;;
14754;SDS011;7469;50.906;6.952;2023-04-30T00:30:17;27.37;;;19.57;;
14754;SDS011;7469;50.906;6.952;2023-04-30T00:32:45;24.73;;;19.27;;
14754;SDS011;7469;50.906;6.952;2023-04-30T00:35:13;27.33;;;19.17;;
14754;SDS011;7469;50.906;6.952;2023-04-30T00:37:41;26.70;;;19.60;;
14754;SDS011;7469;50.906;6.952;2023-04-30T00:40:11;26.23;;;18.13;;
14754;SDS011;7469;50.906;6.952;2023-04-30T00:42:39;25.60;;;17.33;;
14754;SDS011;7469;50.906;6.952;2023-04-30T00:45:08;22.47;;;16.30;;
14754;SDS011;7469;50.906;6.952;2023-04-30T00:47:37;23.97;;;17.23;;
14754;SDS011;7469;50.906;6.952;2023-04-30T00:50:05;23.00;;;16.80;;
14754;SDS011;7469;50.906;6.952;2023-04-30T00:52:35;23.60;;;16.93;;
14754;SDS011;7469;50.906;6.952;2023-04-30T00:55:03;20.97;;;15.93;;
14754;SDS011;7469;50.906;6.952;2023-04-30T00:57:32;21.07;;;16.57;;
14754;SDS011;7469;50.906;6.952;2023-04-30T01:00:01;20.77;;;15.63;;
14754;SDS011;7469;50.906;6.952;2023-04-30T01:02:30;24.87;;;17.03;;
14754;SDS011;7469;50.906;6.952;2023-04-30T01:04:58;24.77;;;17.17;;
14754;SDS011;7469;50.906;6.952;2023-04-30T01:07:26;20.83;;;16.50;;
14754;SDS011;7469;50.906;6.952;2023-04-30T01:09:54;24.33;;;16.53;;
14754;SDS011;7469;50.906;6.952;2023-04-30T01:12:27;22.57;;;15.87;;
14754;SDS011;7469;50.906;6.952;2023-04-30T01:15:03;20.57;;;15.23;;
14754;SDS011;7469;50.906;6.952;2023-04-30T01:17:36;23.87;;;16.20;;
14754;SDS011;7469;50.906;6.952;2023-04-30T01:20:09;25.43;;;17.40;;
14754;SDS011;7469;50.906;6.952;2023-04-30T01:22:42;18.53;;;14.57;;
14754;SDS011;7469;50.906;6.952;2023-04-30T01:25:20;20.97;;;15.67;;
14754;SDS011;7469;50.906;6.952;2023-04-30T01:28:02;25.17;;;15.60;;
14754;SDS011;7469;50.906;6.952;2023-04-30T01:30:32;20.50;;;15.23;;
14754;SDS011;7469;50.906;6.952;2023-04-30T01:33:00;20.10;;;14.83;;
14754;SDS011;7469;50.906;6.952;2023-04-30T01:35:35;21.10;;;14.80;;
14754;SDS011;7469;50.906;6.952;2023-04-30T01:38:20;17.87;;;12.93;;
14754;SDS011;7469;50.906;6.952;2023-04-30T01:40:55;17.73;;;13.87;;
14754;SDS011;7469;50.906;6.952;2023-04-30T01:43:32;17.90;;;13.53;;
14754;SDS011;7469;50.906;6.952;2023-04-30T01:46:08;19.53;;;12.83;;
14754;SDS011;7469;50.906;6.952;2023-04-30T01:48:45;15.10;;;12.30;;
14754;SDS011;7469;50.906;6.952;2023-04-30T01:51:22;15.63;;;11.83;;
14754;SDS011;7469;50.906;6.952;2023-04-30T01:53:56;15.37;;;11.70;;
14754;SDS011;7469;50.906;6.952;2023-04-30T01:56:29;16.20;;;12.53;;
14754;SDS011;7469;50.906;6.952;2023-04-30T01:59:02;16.07;;;12.87;;
14754;SDS011;7469;50.906;6.952;2023-04-30T02:01:31;14.97;;;12.23;;
14754;SDS011;7469;50.906;6.952;2023-04-30T02:04:00;17.73;;;12.67;;
14754;SDS011;7469;50.906;6.952;2023-04-30T02:06:29;15.00;;;12.37;;
14754;SDS011;7469;50.906;6.952;2023-04-30T02:08:57;14.10;;;11.47;;
14754;SDS011;7469;50.906;6.952;2023-04-30T02:11:28;13.93;;;10.00;;
14754;SDS011;7469;50.906;6.952;2023-04-30T02:13:56;15.17;;;11.13;;
14754;SDS011;7469;50.906;6.952;2023-04-30T02:16:26;17.13;;;12.03;;
14754;SDS011;7469;50.906;6.952;2023-04-30T02:18:53;15.93;;;11.03;;
14754;SDS011;7469;50.906;6.952;2023-04-30T02:21:21;15.13;;;11.40;;
14754;SDS011;7469;50.906;6.952;2023-04-30T02:23:49;18.50;;;12.33;;
14754;SDS011;7469;50.906;6.952;2023-04-30T02:26:17;15.70;;;11.97;;
14754;SDS011;7469;50.906;6.952;2023-04-30T02:28:46;14.67;;;11.73;;
14754;SDS011;7469;50.906;6.952;2023-04-30T02:31:14;16.30;;;11.90;;
14754;SDS011;7469;50.906;6.952;2023-04-30T02:33:43;20.97;;;12.13;;
14754;SDS011;7469;50.906;6.952;2023-04-30T02:36:11;16.47;;;11.63;;
14754;SDS011;7469;50.906;6.952;2023-04-30T02:38:39;16.43;;;13.13;;
14754;SDS011;7469;50.906;6.952;2023-04-30T02:41:07;15.60;;;12.27;;
14754;SDS011;7469;50.906;6.952;2023-04-30T02:43:34;16.17;;;11.83;;
14754;SDS011;7469;50.906;6.952;2023-04-30T02:46:02;17.73;;;11.53;;
14754;SDS011;7469;50.906;6.952;2023-04-30T02:48:30;16.53;;;12.13;;
14754;SDS011;7469;50.906;6.952;2023-04-30T02:50:59;17.63;;;12.77;;
14754;SDS011;7469;50.906;6.952;2023-04-30T02:53:27;14.47;;;11.60;;
14754;SDS011;7469;50.906;6.952;2023-04-30T02:55:55;16.50;;;11.90;;
14754;SDS011;7469;50.906;6.952;2023-04-30T02:58:24;17.90;;;13.47;;
14754;SDS011;7469;50.906;6.952;2023-04-30T03:00:52;16.57;;;11.97;;
14754;SDS011;7469;50.906;6.952;2023-04-30T03:03:20;16.67;;;12.80;;
14754;SDS011;7469;50.906;6.952;2023-04-30T03:05:48;21.03;;;13.63;;
14754;SDS011;7469;50.906;6.952;2023-04-30T03:08:17;16.07;;;12.27;;
14754;SDS011;7469;50.906;6.952;2023-04-30T03:10:45;15.03;;;12.23;;
14754;SDS011;7469;50.906;6.952;2023-04-30T03:13:13;17.90;;;12.77;;
14754;SDS011;7469;50.906;6.952;2023-04-30T03:15:41;19.30;;;13.00;;
14754;SDS011;7469;50.906;6.952;2023-04-30T03:18:09;14.27;;;10.93;;
14754;SDS011;7469;50.906;6.952;2023-04-30T03:20:37;15.23;;;11.90;;
14754;SDS011;7469;50.906;6.952;2023-04-30T03:23:05;17.70;;;12.57;;
14754;SDS011;7469;50.906;6.952;2023-04-30T03:25:34;16.10;;;12.43;;
14754;SDS011;7469;50.906;6.952;2023-04-30T03:28:04;16.87;;;13.17;;
14754;SDS011;7469;50.906;6.952;2023-04-30T03:30:32;17.23;;;13.03;;
14754;SDS011;7469;50.906;6.952;2023-04-30T03:33:00;16.10;;;13.00;;
14754;SDS011;7469;50.906;6.952;2023-04-30T03:35:31;17.73;;;13.43;;
14754;SDS011;7469;50.906;6.952;2023-04-30T03:37:59;18.87;;;13.43;;
14754;SDS011;7469;50.906;6.952;2023-04-30T03:40:27;17.77;;;12.67;;
14754;SDS011;7469;50.906;6.952;2023-04-30T03:42:56;17.70;;;13.23;;
14754;SDS011;7469;50.906;6.952;2023-04-30T03:45:24;22.13;;;13.63;;
14754;SDS011;7469;50.906;6.952;2023-04-30T03:47:52;20.27;;;12.20;;
14754;SDS011;7469;50.906;6.952;2023-04-30T03:50:20;16.00;;;12.63;;
14754;SDS011;7469;50.906;6.952;2023-04-30T03:52:48;15.33;;;11.97;;
14754;SDS011;7469;50.906;6.952;2023-04-30T03:55:16;16.70;;;12.13;;
14754;SDS011;7469;50.906;6.952;2023-04-30T03:57:44;17.93;;;12.63;;
14754;SDS011;7469;50.906;6.952;2023-04-30T04:00:14;16.47;;;12.50;;
14754;SDS011;7469;50.906;6.952;2023-04-30T04:02:43;16.97;;;11.93;;
14754;SDS011;7469;50.906;6.952;2023-04-30T04:05:11;14.43;;;11.27;;
14754;SDS011;7469;50.906;6.952;2023-04-30T04:07:39;16.17;;;12.10;;
14754;SDS011;7469;50.906;6.952;2023-04-30T04:10:07;15.80;;;11.47;;
14754;SDS011;7469;50.906;6.952;2023-04-30T04:12:35;14.40;;;11.33;;
14754;SDS011;7469;50.906;6.952;2023-04-30T04:15:03;16.17;;;12.10;;
14754;SDS011;7469;50.906;6.952;2023-04-30T04:17:33;14.07;;;10.87;;
14754;SDS011;7469;50.906;6.952;2023-04-30T04:20:01;15.67;;;11.00;;
14754;SDS011;7469;50.906;6.952;2023-04-30T04:22:31;13.60;;;10.77;;
14754;SDS011;7469;50.906;6.952;2023-04-30T04:24:59;16.80;;;11.67;;
14754;SDS011;7469;50.906;6.952;2023-04-30T04:27:27;18.13;;;11.30;;
14754;SDS011;7469;50.906;6.952;2023-04-30T04:29:55;13.77;;;10.60;;
14754;SDS011;7469;50.906;6.952;2023-04-30T04:32:22;13.33;;;10.27;;
14754;SDS011;7469;50.906;6.952;2023-04-30T04:34:52;13.40;;;10.33;;
14754;SDS011;7469;50.906;6.952;2023-04-30T04:37:20;13.77;;;10.33;;
14754;SDS011;7469;50.906;6.952;2023-04-30T04:39:48;14.10;;;10.63;;
14754;SDS011;7469;50.906;6.952;2023-04-30T04:42:16;14.83;;;10.33;;
14754;SDS011;7469;50.906;6.952;2023-04-30T04:44:45;14.07;;;11.03;;
14754;SDS011;7469;50.906;6.952;2023-04-30T04:47:13;12.60;;;9.57;;
14754;SDS011;7469;50.906;6.952;2023-04-30T04:49:41;13.97;;;9.83;;
14754;SDS011;7469;50.906;6.952;2023-04-30T04:52:11;15.67;;;10.07;;
14754;SDS011;7469;50.906;6.952;2023-04-30T04:54:39;12.30;;;9.77;;
14754;SDS011;7469;50.906;6.952;2023-04-30T04:57:06;17.83;;;10.20;;
14754;SDS011;7469;50.906;6.952;2023-04-30T04:59:34;13.57;;;9.53;;
14754;SDS011;7469;50.906;6.952;2023-04-30T05:02:02;12.53;;;10.13;;
14754;SDS011;7469;50.906;6.952;2023-04-30T05:04:30;13.17;;;10.03;;
14754;SDS011;7469;50.906;6.952;2023-04-30T05:06:58;15.77;;;10.70;;
14754;SDS011;7469;50.906;6.952;2023-04-30T05:09:28;16.17;;;11.00;;
14754;SDS011;7469;50.906;6.952;2023-04-30T05:11:56;16.17;;;10.03;;
14754;SDS011;7469;50.906;6.952;2023-04-30T05:14:24;14.07;;;10.60;;
14754;SDS011;7469;50.906;6.952;2023-04-30T05:16:51;13.67;;;10.63;;
14754;SDS011;7469;50.906;6.952;2023-04-30T05:19:19;13.30;;;10.03;;
14754;SDS011;7469;50.906;6.952;2023-04-30T05:21:47;13.47;;;10.53;;
14754;SDS011;7469;50.906;6.952;2023-04-30T05:24:16;17.80;;;12.07;;
14754;SDS011;7469;50.906;6.952;2023-04-30T05:26:45;14.97;;;11.93;;
14754;SDS011;7469;50.906;6.952;2023-04-30T05:29:13;14.60;;;11.60;;
14754;SDS011;7469;50.906;6.952;2023-04-30T05:31:41;16.93;;;12.23;;
14754;SDS011;7469;50.906;6.952;2023-04-30T05:34:09;14.73;;;12.00;;
14754;SDS011;7469;50.906;6.952;2023-04-30T05:36:37;15.23;;;11.80;;
14754;SDS011;7469;50.906;6.952;2023-04-30T05:39:06;14.63;;;11.27;;
14754;SDS011;7469;50.906;6.952;2023-04-30T05:41:35;17.07;;;11.90;;
14754;SDS011;7469;50.906;6.952;2023-04-30T05:44:04;15.03;;;11.37;;
14754;SDS011;7469;50.906;6.952;2023-04-30T05:46:32;15.57;;;11.83;;
14754;SDS011;7469;50.906;6.952;2023-04-30T05:49:01;16.80;;;11.73;;
14754;SDS011;7469;50.906;6.952;2023-04-30T05:51:29;12.97;;;11.10;;
14754;SDS011;7469;50.906;6.952;2023-04-30T05:53:57;17.07;;;12.33;;
14754;SDS011;7469;50.906;6.952;2023-04-30T05:56:25;16.73;;;10.93;;
14754;SDS011;7469;50.906;6.952;2023-04-30T05:58:53;16.47;;;11.57;;
14754;SDS011;7469;50.906;6.952;2023-04-30T06:01:23;16.20;;;11.20;;
14754;SDS011;7469;50.906;6.952;2023-04-30T06:03:53;15.40;;;11.77;;
14754;SDS011;7469;50.906;6.952;2023-04-30T06:06:21;12.87;;;10.57;;
14754;SDS011;7469;50.906;6.952;2023-04-30T06:08:49;11.80;;;10.30;;
14754;SDS011;7469;50.906;6.952;2023-04-30T06:11:17;13.20;;;10.00;;
14754;SDS011;7469;50.906;6.952;2023-04-30T06:13:46;15.67;;;11.07;;
14754;SDS011;7469;50.906;6.952;2023-04-30T06:16:14;15.50;;;11.60;;
14754;SDS011;7469;50.906;6.952;2023-04-30T06:18:43;13.87;;;11.07;;
14754;SDS011;7469;50.906;6.952;2023-04-30T06:21:11;14.40;;;10.40;;
14754;SDS011;7469;50.906;6.952;2023-04-30T06:23:39;15.93;;;11.43;;
14754;SDS011;7469;50.906;6.952;2023-04-30T06:26:07;11.97;;;10.10;;
14754;SDS011;7469;50.906;6.952;2023-04-30T06:28:35;15.47;;;10.00;;
14754;SDS011;7469;50.906;6.952;2023-04-30T06:31:03;16.13;;;10.23;;
14754;SDS011;7469;50.906;6.952;2023-04-30T06:33:31;13.47;;;10.23;;
14754;SDS011;7469;50.906;6.952;2023-04-30T06:36:01;12.33;;;9.77;;
14754;SDS011;7469;50.906;6.952;2023-04-30T06:38:29;14.63;;;10.90;;
14754;SDS011;7469;50.906;6.952;2023-04-30T06:40:57;14.50;;;10.20;;
14754;SDS011;7469;50.906;6.952;2023-04-30T06:43:24;14.47;;;10.03;;
14754;SDS011;7469;50.906;6.952;2023-04-30T06:45:52;11.57;;;9.77;;
14754;SDS011;7469;50.906;6.952;2023-04-30T06:48:20;14.23;;;9.47;;
14754;SDS011;7469;50.906;6.952;2023-04-30T06:50:48;13.40;;;10.17;;
14754;SDS011;7469;50.906;6.952;2023-04-30T06:53:18;14.17;;;10.80;;
14754;SDS011;7469;50.906;6.952;2023-04-30T06:55:45;14.17;;;10.40;;
14754;SDS011;7469;50.906;6.952;2023-04-30T06:58:14;13.23;;;9.93;;
14754;SDS011;7469;50.906;6.952;2023-04-30T07:00:42;13.73;;;10.23;;
14754;SDS011;7469;50.906;6.952;2023-04-30T07:03:10;13.53;;;10.43;;
14754;SDS011;7469;50.906;6.952;2023-04-30T07:05:39;15.77;;;9.17;;
14754;SDS011;7469;50.906;6.952;2023-04-30T07:08:07;12.30;;;10.07;;
14754;SDS011;7469;50.906;6.952;2023-04-30T07:10:37;16.60;;;9.90;;
14754;SDS011;7469;50.906;6.952;2023-04-30T07:13:04;13.53;;;10.33;;
14754;SDS011;7469;50.906;6.952;2023-04-30T07:15:33;13.70;;;9.60;;
14754;SDS011;7469;50.906;6.952;2023-04-30T07:18:02;13.13;;;9.43;;
14754;SDS011;7469;50.906;6.952;2023-04-30T07:20:30;13.87;;;8.47;;
14754;SDS011;7469;50.906;6.952;2023-04-30T07:22:58;12.47;;;9.90;;
14754;SDS011;7469;50.906;6.952;2023-04-30T07:25:26;17.70;;;9.53;;
14754;SDS011;7469;50.906;6.952;2023-04-30T07:27:55;12.30;;;9.50;;
14754;SDS011;7469;50.906;6.952;2023-04-30T07:30:23;11.40;;;9.20;;
14754;SDS011;7469;50.906;6.952;2023-04-30T07:32:52;14.80;;;10.07;;
14754;SDS011;7469;50.906;6.952;2023-04-30T07:35:20;11.27;;;9.67;;
14754;SDS011;7469;50.906;6.952;2023-04-30T07:37:47;10.70;;;8.90;;
14754;SDS011;7469;50.906;6.952;2023-04-30T07:40:15;12.63;;;9.77;;
14754;SDS011;7469;50.906;6.952;2023-04-30T07:43:01;12.77;;;9.37;;
14754;SDS011;7469;50.906;6.952;2023-04-30T07:45:29;25.20;;;10.00;;
14754;SDS011;7469;50.906;6.952;2023-04-30T07:47:59;13.03;;;8.90;;
14754;SDS011;7469;50.906;6.952;2023-04-30T07:50:28;12.73;;;8.53;;
14754;SDS011;7469;50.906;6.952;2023-04-30T07:52:59;10.80;;;8.50;;
14754;SDS011;7469;50.906;6.952;2023-04-30T07:55:27;14.43;;;8.03;;
14754;SDS011;7469;50.906;6.952;2023-04-30T07:57:56;11.90;;;8.37;;
14754;SDS011;7469;50.906;6.952;2023-04-30T08:00:25;9.67;;;8.27;;
14754;SDS011;7469;50.906;6.952;2023-04-30T08:02:54;11.10;;;8.10;;
14754;SDS011;7469;50.906;6.952;2023-04-30T08:05:22;13.10;;;7.60;;
14754;SDS011;7469;50.906;6.952;2023-04-30T08:07:50;8.83;;;7.80;;
14754;SDS011;7469;50.906;6.952;2023-04-30T08:10:18;11.97;;;8.20;;
14754;SDS011;7469;50.906;6.952;2023-04-30T08:12:46;11.37;;;8.30;;
14754;SDS011;7469;50.906;6.952;2023-04-30T08:15:14;9.37;;;7.63;;
14754;SDS011;7469;50.906;6.952;2023-04-30T08:17:43;9.23;;;7.20;;
14754;SDS011;7469;50.906;6.952;2023-04-30T08:20:11;12.27;;;7.47;;
14754;SDS011;7469;50.906;6.952;2023-04-30T08:22:39;8.77;;;7.20;;
14754;SDS011;7469;50.906;6.952;2023-04-30T08:28:54;9.37;;;7.17;;
14754;SDS011;7469;50.906;6.952;2023-04-30T08:31:22;10.03;;;6.57;;
14754;SDS011;7469;50.906;6.952;2023-04-30T08:33:52;10.07;;;7.13;;
14754;SDS011;7469;50.906;6.952;2023-04-30T08:36:20;9.53;;;6.80;;
14754;SDS011;7469;50.906;6.952;2023-04-30T08:38:47;8.80;;;6.97;;
14754;SDS011;7469;50.906;6.952;2023-04-30T08:41:15;8.20;;;6.33;;
14754;SDS011;7469;50.906;6.952;2023-04-30T08:43:43;7.30;;;6.47;;
14754;SDS011;7469;50.906;6.952;2023-04-30T08:46:11;9.23;;;6.33;;
14754;SDS011;7469;50.906;6.952;2023-04-30T08:48:41;11.47;;;6.80;;
14754;SDS011;7469;50.906;6.952;2023-04-30T08:51:11;8.67;;;6.50;;
14754;SDS011;7469;50.906;6.952;2023-04-30T08:53:39;9.23;;;6.63;;
14754;SDS011;7469;50.906;6.952;2023-04-30T08:56:11;7.73;;;6.20;;
14754;SDS011;7469;50.906;6.952;2023-04-30T08:58:39;9.17;;;6.47;;
14754;SDS011;7469;50.906;6.952;2023-04-30T09:01:08;8.37;;;5.70;;
14754;SDS011;7469;50.906;6.952;2023-04-30T09:03:36;10.50;;;6.13;;
14754;SDS011;7469;50.906;6.952;2023-04-30T09:06:04;7.70;;;5.83;;
14754;SDS011;7469;50.906;6.952;2023-04-30T09:08:42;7.13;;;5.33;;
14754;SDS011;7469;50.906;6.952;2023-04-30T09:11:21;5.83;;;4.37;;
14754;SDS011;7469;50.906;6.952;2023-04-30T09:13:51;7.23;;;4.33;;
14754;SDS011;7469;50.906;6.952;2023-04-30T09:16:21;5.63;;;4.73;;
14754;SDS011;7469;50.906;6.952;2023-04-30T09:18:50;4.27;;;3.87;;
14754;SDS011;7469;50.906;6.952;2023-04-30T09:21:29;4.83;;;3.60;;
14754;SDS011;7469;50.906;6.952;2023-04-30T09:23:59;5.80;;;3.43;;
14754;SDS011;7469;50.906;6.952;2023-04-30T09:26:32;3.70;;;3.30;;
14754;SDS011;7469;50.906;6.952;2023-04-30T09:29:01;4.47;;;4.07;;
14754;SDS011;7469;50.906;6.952;2023-04-30T09:31:33;4.13;;;3.47;;
14754;SDS011;7469;50.906;6.952;2023-04-30T09:34:02;5.77;;;4.03;;
14754;SDS011;7469;50.906;6.952;2023-04-30T09:36:30;4.43;;;3.60;;
14754;SDS011;7469;50.906;6.952;2023-04-30T09:39:06;3.67;;;3.20;;
14754;SDS011;7469;50.906;6.952;2023-04-30T09:41:40;3.97;;;2.90;;
14754;SDS011;7469;50.906;6.952;2023-04-30T09:44:11;3.70;;;3.00;;
14754;SDS011;7469;50.906;6.952;2023-04-30T09:46:53;3.23;;;2.93;;
14754;SDS011;7469;50.906;6.952;2023-04-30T09:49:23;4.57;;;3.13;;
14754;SDS011;7469;50.906;6.952;2023-04-30T09:51:53;4.87;;;2.80;;
14754;SDS011;7469;50.906;6.952;2023-04-30T09:54:24;2.77;;;2.57;;
14754;SDS011;7469;50.906;6.952;2023-04-30T09:56:53;4.10;;;2.83;;
14754;SDS011;7469;50.906;6.952;2023-04-30T09:59:25;3.07;;;2.77;;
14754;SDS011;7469;50.906;6.952;2023-04-30T10:01:57;2.67;;;2.47;;
14754;SDS011;7469;50.906;6.952;2023-04-30T10:04:27;4.70;;;2.85;;
14754;SDS011;7469;50.906;6.952;2023-04-30T10:06:57;2.53;;;2.33;;
14754;SDS011;7469;50.906;6.952;2023-04-30T10:09:31;4.10;;;2.30;;
14754;SDS011;7469;50.906;6.952;2023-04-30T10:12:05;3.28;;;2.47;;
14754;SDS011;7469;50.906;6.952;2023-04-30T10:14:38;2.35;;;2.15;;
14754;SDS011;7469;50.906;6.952;2023-04-30T10:17:12;2.50;;;2.30;;
14754;SDS011;7469;50.906;6.952;2023-04-30T10:19:42;2.47;;;2.28;;
14754;SDS011;7469;50.906;6.952;2023-04-30T10:22:13;3.85;;;2.45;;
14754;SDS011;7469;50.906;6.952;2023-04-30T10:24:42;7.13;;;2.15;;
14754;SDS011;7469;50.906;6.952;2023-04-30T10:27:12;1.85;;;1.40;;
14754;SDS011;7469;50.906;6.952;2023-04-30T10:29:40;1.40;;;1.30;;
14754;SDS011;7469;50.906;6.952;2023-04-30T10:32:09;0.95;;;0.95;;
14754;SDS011;7469;50.906;6.952;2023-04-30T10:34:42;1.10;;;0.70;;
14754;SDS011;7469;50.906;6.952;2023-04-30T10:37:19;3.13;;;0.93;;
14754;SDS011;7469;50.906;6.952;2023-04-30T10:39:54;0.77;;;0.77;;
14754;SDS011;7469;50.906;6.952;2023-04-30T10:42:22;0.95;;;0.95;;
14754;SDS011;7469;50.906;6.952;2023-04-30T10:44:50;0.85;;;0.85;;
14754;SDS011;7469;50.906;6.952;2023-04-30T10:47:18;3.63;;;1.10;;
14754;SDS011;7469;50.906;6.952;2023-04-30T10:49:48;1.52;;;1.38;;
14754;SDS011;7469;50.906;6.952;2023-04-30T10:52:25;1.17;;;0.80;;
14754;SDS011;7469;50.906;6.952;2023-04-30T10:54:55;0.70;;;0.70;;
14754;SDS011;7469;50.906;6.952;2023-04-30T10:57:23;0.80;;;0.80;;
14754;SDS011;7469;50.906;6.952;2023-04-30T11:02:46;0.80;;;0.80;;
14754;SDS011;7469;50.906;6.952;2023-04-30T11:05:15;1.40;;;1.30;;
14754;SDS011;7469;50.906;6.952;2023-04-30T11:07:47;1.17;;;1.00;;
14754;SDS011;7469;50.906;6.952;2023-04-30T11:10:19;1.23;;;0.90;;
14754;SDS011;7469;50.906;6.952;2023-04-30T11:12:48;0.90;;;0.90;;
14754;SDS011;7469;50.906;6.952;2023-04-30T11:15:18;0.73;;;0.73;;
14754;SDS011;7469;50.906;6.952;2023-04-30T11:17:48;1.77;;;1.30;;
14754;SDS011;7469;50.906;6.952;2023-04-30T11:20:18;0.90;;;0.90;;
14754;SDS011;7469;50.906;6.952;2023-04-30T11:22:47;0.97;;;0.87;;
14754;SDS011;7469;50.906;6.952;2023-04-30T11:25:18;0.70;;;0.70;;
14754;SDS011;7469;50.906;6.952;2023-04-30T11:27:47;0.80;;;0.80;;
14754;SDS011;7469;50.906;6.952;2023-04-30T11:30:17;0.87;;;0.80;;
14754;SDS011;7469;50.906;6.952;2023-04-30T11:32:46;0.90;;;0.80;;
14754;SDS011;7469;50.906;6.952;2023-04-30T11:35:16;0.87;;;0.83;;
14754;SDS011;7469;50.906;6.952;2023-04-30T11:37:45;0.80;;;0.80;;
14754;SDS011;7469;50.906;6.952;2023-04-30T11:40:15;2.47;;;0.97;;
14754;SDS011;7469;50.906;6.952;2023-04-30T11:42:44;1.63;;;0.90;;
14754;SDS011;7469;50.906;6.952;2023-04-30T11:45:14;0.70;;;0.70;;
14754;SDS011;7469;50.906;6.952;2023-04-30T11:47:46;0.70;;;0.70;;
14754;SDS011;7469;50.906;6.952;2023-04-30T11:50:16;0.70;;;0.70;;
14754;SDS011;7469;50.906;6.952;2023-04-30T11:52:49;0.70;;;0.70;;
14754;SDS011;7469;50.906;6.952;2023-04-30T11:55:19;0.73;;;0.73;;
14754;SDS011;7469;50.906;6.952;2023-04-30T11:57:50;3.47;;;0.80;;
14754;SDS011;7469;50.906;6.952;2023-04-30T12:00:21;1.23;;;0.90;;
14754;SDS011;7469;50.906;6.952;2023-04-30T12:02:53;2.00;;;0.90;;
14754;SDS011;7469;50.906;6.952;2023-04-30T12:05:22;0.80;;;0.80;;
14754;SDS011;7469;50.906;6.952;2023-04-30T12:07:53;2.80;;;0.80;;
14754;SDS011;7469;50.906;6.952;2023-04-30T12:10:23;0.80;;;0.70;;
14754;SDS011;7469;50.906;6.952;2023-04-30T12:12:54;0.60;;;0.60;;
14754;SDS011;7469;50.906;6.952;2023-04-30T12:15:22;0.53;;;0.53;;
14754;SDS011;7469;50.906;6.952;2023-04-30T12:17:53;0.73;;;0.60;;
14754;SDS011;7469;50.906;6.952;2023-04-30T12:20:23;0.97;;;0.70;;
14754;SDS011;7469;50.906;6.952;2023-04-30T12:22:53;0.53;;;0.53;;
14754;SDS011;7469;50.906;6.952;2023-04-30T12:25:21;0.50;;;0.50;;
14754;SDS011;7469;50.906;6.952;2023-04-30T12:27:50;0.40;;;0.40;;
14754;SDS011;7469;50.906;6.952;2023-04-30T12:30:21;0.40;;;0.40;;
14754;SDS011;7469;50.906;6.952;2023-04-30T12:32:52;0.40;;;0.40;;
14754;SDS011;7469;50.906;6.952;2023-04-30T12:35:26;0.40;;;0.40;;
14754;SDS011;7469;50.906;6.952;2023-04-30T12:38:00;1.60;;;0.37;;
14754;SDS011;7469;50.906;6.952;2023-04-30T12:40:29;0.40;;;0.40;;
14754;SDS011;7469;50.906;6.952;2023-04-30T12:43:00;0.50;;;0.50;;
14754;SDS011;7469;50.906;6.952;2023-04-30T12:45:43;0.30;;;0.30;;
14754;SDS011;7469;50.906;6.952;2023-04-30T12:48:13;0.87;;;0.40;;
14754;SDS011;7469;50.906;6.952;2023-04-30T12:50:46;0.40;;;0.40;;
14754;SDS011;7469;50.906;6.952;2023-04-30T12:53:15;0.50;;;0.50;;
14754;SDS011;7469;50.906;6.952;2023-04-30T12:55:43;0.50;;;0.30;;
14754;SDS011;7469;50.906;6.952;2023-04-30T12:58:12;0.30;;;0.30;;
14754;SDS011;7469;50.906;6.952;2023-04-30T13:00:46;0.47;;;0.47;;
14754;SDS011;7469;50.906;6.952;2023-04-30T13:03:16;0.30;;;0.30;;
14754;SDS011;7469;50.906;6.952;2023-04-30T13:05:45;0.87;;;0.40;;
14754;SDS011;7469;50.906;6.952;2023-04-30T13:08:14;0.87;;;0.40;;
14754;SDS011;7469;50.906;6.952;2023-04-30T13:10:43;1.37;;;0.60;;
14754;SDS011;7469;50.906;6.952;2023-04-30T13:13:11;0.50;;;0.50;;
14754;SDS011;7469;50.906;6.952;2023-04-30T13:15:40;0.63;;;0.40;;
14754;SDS011;7469;50.906;6.952;2023-04-30T13:18:10;0.20;;;0.20;;
14754;SDS011;7469;50.906;6.952;2023-04-30T13:20:41;0.20;;;0.20;;
14754;SDS011;7469;50.906;6.952;2023-04-30T13:23:09;0.30;;;0.30;;
14754;SDS011;7469;50.906;6.952;2023-04-30T13:25:38;0.77;;;0.70;;
14754;SDS011;7469;50.906;6.952;2023-04-30T13:28:07;0.30;;;0.30;;
14754;SDS011;7469;50.906;6.952;2023-04-30T13:30:35;1.37;;;0.50;;
14754;SDS011;7469;50.906;6.952;2023-04-30T13:33:03;0.20;;;0.20;;
14754;SDS011;7469;50.906;6.952;2023-04-30T13:35:32;0.50;;;0.50;;
14754;SDS011;7469;50.906;6.952;2023-04-30T13:38:00;0.33;;;0.33;;
14754;SDS011;7469;50.906;6.952;2023-04-30T13:40:28;0.40;;;0.40;;
14754;SDS011;7469;50.906;6.952;2023-04-30T13:42:56;0.40;;;0.40;;
14754;SDS011;7469;50.906;6.952;2023-04-30T13:45:24;0.30;;;0.30;;
14754;SDS011;7469;50.906;6.952;2023-04-30T13:47:52;0.40;;;0.40;;
14754;SDS011;7469;50.906;6.952;2023-04-30T13:50:20;0.50;;;0.47;;
14754;SDS011;7469;50.906;6.952;2023-04-30T13:52:50;1.17;;;0.40;;
14754;SDS011;7469;50.906;6.952;2023-04-30T13:55:18;0.70;;;0.50;;
14754;SDS011;7469;50.906;6.952;2023-04-30T13:57:47;1.33;;;0.43;;
14754;SDS011;7469;50.906;6.952;2023-04-30T14:00:15;0.40;;;0.40;;
14754;SDS011;7469;50.906;6.952;2023-04-30T14:02:43;0.50;;;0.50;;
14754;SDS011;7469;50.906;6.952;2023-04-30T14:05:11;0.47;;;0.47;;
14754;SDS011;7469;50.906;6.952;2023-04-30T14:07:40;0.30;;;0.30;;
14754;SDS011;7469;50.906;6.952;2023-04-30T14:10:11;0.30;;;0.30;;
14754;SDS011;7469;50.906;6.952;2023-04-30T14:12:38;0.60;;;0.60;;
14754;SDS011;7469;50.906;6.952;2023-04-30T14:15:07;0.50;;;0.50;;
14754;SDS011;7469;50.906;6.952;2023-04-30T14:17:35;0.53;;;0.53;;
14754;SDS011;7469;50.906;6.952;2023-04-30T14:20:03;0.50;;;0.50;;
14754;SDS011;7469;50.906;6.952;2023-04-30T14:22:32;0.50;;;0.50;;
14754;SDS011;7469;50.906;6.952;2023-04-30T14:25:03;1.17;;;0.57;;
14754;SDS011;7469;50.906;6.952;2023-04-30T14:27:33;0.97;;;0.90;;
14754;SDS011;7469;50.906;6.952;2023-04-30T14:30:02;0.77;;;0.40;;
14754;SDS011;7469;50.906;6.952;2023-04-30T14:32:30;0.50;;;0.50;;
14754;SDS011;7469;50.906;6.952;2023-04-30T14:34:58;0.50;;;0.47;;
14754;SDS011;7469;50.906;6.952;2023-04-30T14:37:26;1.70;;;0.60;;
14754;SDS011;7469;50.906;6.952;2023-04-30T14:39:55;1.20;;;0.47;;
14754;SDS011;7469;50.906;6.952;2023-04-30T14:42:23;0.50;;;0.50;;
14754;SDS011;7469;50.906;6.952;2023-04-30T14:44:55;0.47;;;0.47;;
14754;SDS011;7469;50.906;6.952;2023-04-30T14:47:23;0.93;;;0.40;;
14754;SDS011;7469;50.906;6.952;2023-04-30T14:49:52;2.40;;;0.50;;
14754;SDS011;7469;50.906;6.952;2023-04-30T14:52:21;0.60;;;0.60;;
14754;SDS011;7469;50.906;6.952;2023-04-30T14:54:49;0.60;;;0.47;;
14754;SDS011;7469;50.906;6.952;2023-04-30T14:57:17;0.40;;;0.40;;
14754;SDS011;7469;50.906;6.952;2023-04-30T14:59:45;1.10;;;0.50;;
14754;SDS011;7469;50.906;6.952;2023-04-30T15:02:14;1.10;;;0.50;;
14754;SDS011;7469;50.906;6.952;2023-04-30T15:04:42;2.07;;;1.03;;
14754;SDS011;7469;50.906;6.952;2023-04-30T15:07:11;0.50;;;0.50;;